createdAt,value
2024-03-13T00:02:06.190Z,2.50
2024-03-13T00:04:42.387Z,2.67
2024-03-13T00:07:12.069Z,2.85
2024-03-13T00:09:47.906Z,2.85
2024-03-13T00:12:15.273Z,2.45
2024-03-13T00:17:08.451Z,2.33
2024-03-13T00:19:34.911Z,2.67
2024-03-13T00:22:06.042Z,2.92
2024-03-13T00:24:32.662Z,2.47
2024-03-13T00:26:59.235Z,2.60
2024-03-13T00:29:28.599Z,2.58
2024-03-13T00:31:55.060Z,2.63
2024-03-13T00:34:21.649Z,2.40
2024-03-13T00:36:49.697Z,2.35
2024-03-13T00:39:16.639Z,2.33
2024-03-13T00:41:43.144Z,2.63
2024-03-13T00:44:10.518Z,2.80
2024-03-13T00:46:37.335Z,2.40
2024-03-13T00:49:04.320Z,2.20
2024-03-13T00:51:32.594Z,2.58
2024-03-13T00:54:00.408Z,2.60
2024-03-13T00:56:30.456Z,2.38
2024-03-13T00:58:57.352Z,2.53
2024-03-13T01:01:24.027Z,2.20
2024-03-13T01:03:51.199Z,2.70
2024-03-13T01:06:20.924Z,2.53
2024-03-13T01:08:47.589Z,1.90
2024-03-13T01:11:14.157Z,2.10
2024-03-13T01:13:40.749Z,2.20
2024-03-13T01:16:08.721Z,2.15
2024-03-13T01:18:35.719Z,2.20
2024-03-13T01:21:02.259Z,2.40
2024-03-13T01:23:28.866Z,2.05
2024-03-13T01:25:58.706Z,1.98
2024-03-13T01:28:25.276Z,2.28
2024-03-13T01:30:51.834Z,2.10
2024-03-13T01:33:18.304Z,2.03
2024-03-13T01:35:44.799Z,2.40
2024-03-13T01:38:11.250Z,2.30
2024-03-13T01:40:56.209Z,2.33
2024-03-13T01:43:41.188Z,2.30
2024-03-13T01:46:26.579Z,2.00
2024-03-13T01:49:11.580Z,2.58
2024-03-13T01:51:56.668Z,2.30
2024-03-13T01:54:41.735Z,2.20
2024-03-13T01:57:14.599Z,2.13
2024-03-13T02:00:10.731Z,1.73
2024-03-13T02:05:06.102Z,2.45
2024-03-13T02:07:32.797Z,2.25
2024-03-13T02:10:01.088Z,2.97
2024-03-13T02:12:28.292Z,2.40
2024-03-13T02:14:54.807Z,2.35
2024-03-13T02:17:22.433Z,2.42
2024-03-13T02:19:49.422Z,2.70
2024-03-13T02:22:15.947Z,2.92
2024-03-13T02:24:42.560Z,2.70
2024-03-13T02:27:10.224Z,2.78
2024-03-13T02:29:39.091Z,2.70
2024-03-13T02:32:06.195Z,2.40
2024-03-13T02:34:32.731Z,2.75
2024-03-13T02:36:59.973Z,2.20
2024-03-13T02:39:27.907Z,2.63
2024-03-13T02:41:54.444Z,2.95
2024-03-13T02:44:21.206Z,2.80
2024-03-13T02:46:47.723Z,2.60
2024-03-13T02:49:16.297Z,2.33
2024-03-13T02:51:45.812Z,2.30
2024-03-13T02:54:12.309Z,2.60
2024-03-13T02:56:40.025Z,2.40
2024-03-13T02:59:06.515Z,2.60
2024-03-13T03:01:33.177Z,2.58
2024-03-13T03:04:00.513Z,2.70
2024-03-13T03:06:27.101Z,2.53
2024-03-13T03:08:53.546Z,2.40
2024-03-13T03:11:20.110Z,2.42
2024-03-13T03:13:47.423Z,2.60
2024-03-13T03:16:14.316Z,2.60
2024-03-13T03:18:40.902Z,2.50
2024-03-13T03:21:09.043Z,2.30
2024-03-13T03:23:35.499Z,2.40
2024-03-13T03:26:01.958Z,2.47
2024-03-13T03:28:28.441Z,2.72
2024-03-13T03:30:57.927Z,2.30
2024-03-13T03:33:24.609Z,2.60
2024-03-13T03:35:51.088Z,2.63
2024-03-13T03:38:18.219Z,2.20
2024-03-13T03:40:44.720Z,2.20
2024-03-13T03:43:11.738Z,2.28
2024-03-13T03:45:38.598Z,2.17
2024-03-13T03:48:11.130Z,2.50
2024-03-13T03:50:39.050Z,2.38
2024-03-13T03:53:05.558Z,2.20
2024-03-13T03:55:32.089Z,2.05
2024-03-13T03:57:58.750Z,2.50
2024-03-13T04:00:25.258Z,2.35
2024-03-13T04:02:54.787Z,2.30
2024-03-13T04:05:21.652Z,2.17
2024-03-13T04:07:50.387Z,2.25
2024-03-13T04:10:17.251Z,2.00
2024-03-13T04:12:43.978Z,2.20
2024-03-13T04:15:10.561Z,2.20
2024-03-13T04:17:36.995Z,2.15
2024-03-13T04:20:04.347Z,2.33
2024-03-13T04:22:33.190Z,2.30
2024-03-13T04:24:59.803Z,2.30
2024-03-13T04:27:28.348Z,1.98
2024-03-13T04:29:54.841Z,1.90
2024-03-13T04:32:22.145Z,2.28
2024-03-13T04:34:48.882Z,2.10
2024-03-13T04:37:16.606Z,2.10
2024-03-13T04:39:43.718Z,2.20
2024-03-13T04:42:10.265Z,2.00
2024-03-13T04:44:36.733Z,2.00
2024-03-13T04:47:03.194Z,2.30
2024-03-13T04:49:29.781Z,2.20
2024-03-13T04:51:57.342Z,2.10
2024-03-13T04:54:23.944Z,2.45
2024-03-13T04:56:50.385Z,2.40
2024-03-13T04:59:17.040Z,2.63
2024-03-13T05:01:43.742Z,2.17
2024-03-13T05:04:10.213Z,2.78
2024-03-13T05:06:36.739Z,2.40
2024-03-13T05:09:03.479Z,2.42
2024-03-13T05:11:29.936Z,2.67
2024-03-13T05:13:56.437Z,3.00
2024-03-13T05:16:24.780Z,2.35
2024-03-13T05:18:51.334Z,2.50
2024-03-13T05:21:19.720Z,2.40
2024-03-13T05:23:47.123Z,2.35
2024-03-13T05:26:13.836Z,2.60
2024-03-13T05:28:40.607Z,2.55
2024-03-13T05:31:10.858Z,2.10
2024-03-13T05:33:41.537Z,2.20
2024-03-13T05:36:11.046Z,2.63
2024-03-13T05:38:37.484Z,2.80
2024-03-13T05:41:04.242Z,2.75
2024-03-13T05:43:31.106Z,2.13
2024-03-13T05:45:57.616Z,2.67
2024-03-13T05:48:24.107Z,2.22
2024-03-13T05:50:50.562Z,2.20
2024-03-13T05:53:17.000Z,2.47
2024-03-13T05:55:44.123Z,2.15
2024-03-13T05:58:10.891Z,2.35
2024-03-13T06:00:42.311Z,1.95
2024-03-13T06:03:08.838Z,2.00
2024-03-13T06:05:35.414Z,2.20
2024-03-13T06:08:01.950Z,2.30
2024-03-13T06:10:31.068Z,1.88
2024-03-13T06:12:57.899Z,1.85
2024-03-13T06:15:24.400Z,2.25
2024-03-13T06:17:50.960Z,1.95
2024-03-13T06:20:19.773Z,2.15
2024-03-13T06:22:46.879Z,2.08
2024-03-13T06:25:14.541Z,2.28
2024-03-13T06:27:41.754Z,2.10
2024-03-13T06:30:10.147Z,1.65
2024-03-13T06:32:37.018Z,1.90
2024-03-13T06:35:05.277Z,1.92
2024-03-13T06:37:33.163Z,2.10
2024-03-13T06:40:00.156Z,2.03
2024-03-13T06:42:26.945Z,2.05
2024-03-13T06:44:55.367Z,1.90
2024-03-13T06:47:22.444Z,1.92
2024-03-13T06:49:49.013Z,2.03
2024-03-13T06:52:15.740Z,2.00
2024-03-13T06:54:42.970Z,2.03
2024-03-13T06:57:13.580Z,1.88
2024-03-13T06:59:46.111Z,2.10
2024-03-13T07:02:16.326Z,1.63
2024-03-13T07:04:43.775Z,1.80
2024-03-13T07:07:11.187Z,1.65
2024-03-13T07:09:38.506Z,1.70
2024-03-13T07:12:05.636Z,1.63
2024-03-13T07:14:32.160Z,1.65
2024-03-13T07:16:59.644Z,1.55
2024-03-13T07:21:53.777Z,1.70
2024-03-13T07:24:20.508Z,1.60
2024-03-13T07:26:47.021Z,1.90
2024-03-13T07:29:13.533Z,1.85
2024-03-13T07:31:41.076Z,1.60
2024-03-13T07:34:11.011Z,1.60
2024-03-13T07:36:39.185Z,1.60
2024-03-13T07:39:11.401Z,1.60
2024-03-13T07:41:38.144Z,2.00
2024-03-13T07:44:04.596Z,1.52
2024-03-13T07:46:31.165Z,1.42
2024-03-13T07:48:57.735Z,1.75
2024-03-13T07:51:24.460Z,1.50
2024-03-13T07:53:51.127Z,1.90
2024-03-13T07:56:19.071Z,1.60
2024-03-13T07:58:45.618Z,1.38
2024-03-13T08:01:12.246Z,1.50
2024-03-13T08:03:38.824Z,1.60
2024-03-13T09:06:25.819Z,1.10
2024-03-13T09:08:52.594Z,1.40
2024-03-13T09:11:19.957Z,1.52
2024-03-13T09:13:46.789Z,1.60
2024-03-13T09:16:13.828Z,1.88
2024-03-13T09:21:07.140Z,1.40
2024-03-13T09:23:33.918Z,1.90
2024-03-13T09:28:28.591Z,1.60
2024-03-13T09:30:55.293Z,1.70
2024-03-13T09:33:21.899Z,1.50
2024-03-13T09:35:48.555Z,1.50
2024-03-13T09:38:16.415Z,1.40
2024-03-13T09:40:46.617Z,1.40
2024-03-13T09:43:18.936Z,1.65
2024-03-13T09:45:49.036Z,1.60
2024-03-13T09:48:15.767Z,1.60
2024-03-13T09:50:49.495Z,1.48
2024-03-13T09:53:21.326Z,1.70
2024-03-13T09:55:48.911Z,1.63
2024-03-13T09:58:16.584Z,1.50
2024-03-13T10:00:44.538Z,1.88
2024-03-13T10:03:25.267Z,1.48
2024-03-13T10:06:21.647Z,1.70
2024-03-13T10:08:48.952Z,1.70
2024-03-13T10:11:16.322Z,1.73
2024-03-13T10:13:44.888Z,1.60
2024-03-13T10:16:11.811Z,1.73
2024-03-13T10:18:42.954Z,1.70
2024-03-13T10:21:14.734Z,1.58
2024-03-13T10:23:44.134Z,1.65
2024-03-13T10:26:11.219Z,1.35
2024-03-13T10:28:39.207Z,1.58
2024-03-13T10:31:06.033Z,1.50
2024-03-13T10:33:32.905Z,1.38
2024-03-13T10:35:59.715Z,1.50
2024-03-13T10:38:26.820Z,1.70
2024-03-13T10:40:53.421Z,1.60
2024-03-13T10:43:20.250Z,1.45
2024-03-13T10:45:49.026Z,1.50
2024-03-13T10:48:17.937Z,1.50
2024-03-13T10:50:45.470Z,1.48
2024-03-13T10:55:38.610Z,1.50
2024-03-13T10:58:05.320Z,1.40
2024-03-13T11:00:31.946Z,1.50
2024-03-13T11:02:59.248Z,2.10
2024-03-13T11:05:26.014Z,1.80
2024-03-13T11:07:53.894Z,1.70
2024-03-13T11:10:23.626Z,2.15
2024-03-13T11:12:53.372Z,1.70
2024-03-13T11:15:24.754Z,1.98
2024-03-13T11:17:55.151Z,1.60
2024-03-13T11:20:22.474Z,1.90
2024-03-13T11:22:56.803Z,1.85
2024-03-13T11:25:23.924Z,1.50
2024-03-13T11:27:55.951Z,1.60
2024-03-13T11:30:22.611Z,1.50
2024-03-13T11:32:51.975Z,1.80
2024-03-13T11:35:19.319Z,1.70
2024-03-13T11:37:46.436Z,1.77
2024-03-13T11:40:13.426Z,1.38
2024-03-13T11:42:41.440Z,1.40
2024-03-13T11:45:11.234Z,1.50
2024-03-13T11:47:42.648Z,1.50
2024-03-13T11:50:09.962Z,1.20
2024-03-13T11:52:38.259Z,1.48
2024-03-13T11:55:22.137Z,1.40
2024-03-13T11:57:48.591Z,1.60
2024-03-13T12:00:22.272Z,1.35
2024-03-13T12:02:48.928Z,1.20
2024-03-13T12:05:31.748Z,1.50
2024-03-13T12:08:00.876Z,1.20
2024-03-13T12:10:28.816Z,1.65
2024-03-13T12:12:55.469Z,1.40
2024-03-13T12:15:22.723Z,1.20
2024-03-13T12:20:20.834Z,1.27
2024-03-13T12:22:48.468Z,1.30
2024-03-13T12:25:15.004Z,1.20
2024-03-13T12:27:45.325Z,1.30
2024-03-13T12:30:12.012Z,1.20
2024-03-13T12:32:38.619Z,1.00
2024-03-13T12:35:11.149Z,1.23
2024-03-13T12:37:37.877Z,1.13
2024-03-13T12:40:13.675Z,1.10
2024-03-13T12:42:43.354Z,1.23
2024-03-13T12:45:12.674Z,1.05
2024-03-13T12:47:39.852Z,1.33
2024-03-13T12:50:17.567Z,1.13
2024-03-13T12:52:46.559Z,0.90
2024-03-13T12:55:14.068Z,0.80
2024-03-13T12:57:40.640Z,1.02
2024-03-13T13:00:15.468Z,1.10
2024-03-13T13:02:45.203Z,1.10
2024-03-13T13:05:12.064Z,1.20
2024-03-13T13:07:49.663Z,1.25
2024-03-13T13:10:16.380Z,1.08
2024-03-13T13:12:42.860Z,1.50
2024-03-13T13:15:13.989Z,1.20
2024-03-13T13:17:44.528Z,1.20
2024-03-13T13:20:14.978Z,1.40
2024-03-13T13:22:42.475Z,1.50
2024-03-13T13:25:09.846Z,1.13
2024-03-13T13:27:36.732Z,1.10
2024-03-13T13:30:04.534Z,1.73
2024-03-13T13:32:31.019Z,1.20
2024-03-13T13:34:57.462Z,1.35
2024-03-13T13:37:23.960Z,1.00
2024-03-13T13:39:50.484Z,1.10
2024-03-13T13:42:17.428Z,1.17
2024-03-13T13:44:44.112Z,1.10
2024-03-13T13:47:11.479Z,1.40
2024-03-13T13:49:43.973Z,1.30
2024-03-13T13:52:10.438Z,1.35
2024-03-13T13:54:36.909Z,1.60
2024-03-13T13:57:03.586Z,1.70
2024-03-13T13:59:30.561Z,1.20
2024-03-13T14:01:56.993Z,1.50
2024-03-13T14:04:23.480Z,1.40
2024-03-13T14:06:50.000Z,1.67
2024-03-13T14:09:17.394Z,1.63
2024-03-13T14:11:44.282Z,1.60
2024-03-13T14:14:11.182Z,1.70
2024-03-13T14:16:37.910Z,1.80
2024-03-13T14:19:04.750Z,2.10
2024-03-13T14:21:31.459Z,2.13
2024-03-13T14:24:00.773Z,1.85
2024-03-13T14:26:27.700Z,1.73
2024-03-13T14:28:54.158Z,1.58
2024-03-13T14:31:20.587Z,1.98
2024-03-13T14:33:47.098Z,1.77
2024-03-13T14:36:13.759Z,1.75
2024-03-13T14:38:42.836Z,1.92
2024-03-13T14:41:13.987Z,1.52
2024-03-13T14:43:43.025Z,1.67
2024-03-13T14:46:10.337Z,1.65
2024-03-13T14:48:37.417Z,1.73
2024-03-13T14:51:04.099Z,1.70
2024-03-13T14:53:31.821Z,1.58
2024-03-13T14:55:58.331Z,1.50
2024-03-13T14:58:24.748Z,1.60
2024-03-13T15:00:51.186Z,1.77
2024-03-13T15:03:18.257Z,1.73
2024-03-13T15:05:44.823Z,1.65
2024-03-13T15:08:11.423Z,1.80
2024-03-13T15:10:38.532Z,1.55
2024-03-13T15:13:06.386Z,1.70
2024-03-13T15:15:33.005Z,1.83
2024-03-13T15:17:59.632Z,1.60
2024-03-13T15:20:26.302Z,2.00
2024-03-13T15:22:52.872Z,1.60
2024-03-13T15:25:19.304Z,1.50
2024-03-13T15:27:45.855Z,1.90
2024-03-13T15:30:15.724Z,1.80
2024-03-13T15:32:43.772Z,1.50
2024-03-13T15:35:10.593Z,1.50
2024-03-13T15:37:37.311Z,1.45
2024-03-13T15:40:12.178Z,1.52
2024-03-13T15:42:39.646Z,1.40
2024-03-13T15:45:06.267Z,1.27
2024-03-13T15:47:32.842Z,1.48
2024-03-13T15:49:59.646Z,1.30
2024-03-13T15:52:26.080Z,1.40
2024-03-13T15:54:52.576Z,1.45
2024-03-13T15:57:19.793Z,1.30
2024-03-13T15:59:46.411Z,1.23
2024-03-13T16:02:13.761Z,1.30
2024-03-13T16:04:40.228Z,1.30
2024-03-13T16:07:06.676Z,1.35
2024-03-13T16:09:34.040Z,1.20
2024-03-13T16:12:04.005Z,1.10
2024-03-13T16:14:31.572Z,1.30
2024-03-13T16:17:00.979Z,1.27
2024-03-13T16:19:27.434Z,1.15
2024-03-13T16:21:53.940Z,1.20
2024-03-13T16:24:20.642Z,1.30
2024-03-13T16:26:48.108Z,1.00
2024-03-13T16:29:14.580Z,1.10
2024-03-13T16:31:41.340Z,1.20
2024-03-13T16:34:08.674Z,1.40
2024-03-13T16:36:35.349Z,1.10
2024-03-13T16:39:02.836Z,1.23
2024-03-13T16:41:29.396Z,1.20
2024-03-13T16:43:55.863Z,1.20
2024-03-13T16:46:22.273Z,1.10
2024-03-13T16:48:48.846Z,1.20
2024-03-13T16:51:15.449Z,2.25
2024-03-13T16:53:42.002Z,3.78
2024-03-13T16:56:10.559Z,4.10
2024-03-13T16:58:37.089Z,4.15
2024-03-13T17:01:05.195Z,4.05
2024-03-13T17:03:31.990Z,4.03
2024-03-13T17:05:58.460Z,4.13
2024-03-13T17:08:24.969Z,4.40
2024-03-13T17:10:51.546Z,4.00
2024-03-13T17:13:18.090Z,3.50
2024-03-13T17:15:44.943Z,4.00
2024-03-13T17:18:17.064Z,3.58
2024-03-13T17:20:45.814Z,3.97
2024-03-13T17:23:12.773Z,3.90
2024-03-13T17:25:39.428Z,3.80
2024-03-13T17:28:07.198Z,3.55
2024-03-13T17:30:34.051Z,3.60
2024-03-13T17:33:01.222Z,3.20
2024-03-13T17:37:54.668Z,3.50
2024-03-13T17:40:21.483Z,3.15
2024-03-13T17:42:48.358Z,3.03
2024-03-13T17:45:16.519Z,3.30
2024-03-13T17:47:44.777Z,3.10
2024-03-13T17:50:11.592Z,3.28
2024-03-13T17:52:38.266Z,3.75
2024-03-13T17:55:04.947Z,3.10
2024-03-13T17:57:34.169Z,3.20
2024-03-13T18:00:01.507Z,3.28
2024-03-13T18:02:36.037Z,2.80
2024-03-13T18:05:02.567Z,3.13
2024-03-13T18:07:29.102Z,2.80
2024-03-13T18:09:56.289Z,3.00
2024-03-13T18:12:24.290Z,2.88
2024-03-13T18:14:53.539Z,3.15
2024-03-13T18:17:20.198Z,2.80
2024-03-13T18:19:46.815Z,3.00
2024-03-13T18:22:15.355Z,2.83
2024-03-13T18:24:41.878Z,2.92
2024-03-13T18:27:09.298Z,2.75
2024-03-13T18:29:36.109Z,3.10
2024-03-13T18:32:04.815Z,2.80
2024-03-13T18:34:34.284Z,3.13
2024-03-13T18:37:01.011Z,2.85
2024-03-13T18:39:27.856Z,2.83
2024-03-13T18:41:54.547Z,2.83
2024-03-13T18:44:25.411Z,2.70
2024-03-13T18:46:52.276Z,2.70
2024-03-13T18:49:18.797Z,2.70
2024-03-13T18:51:45.389Z,2.60
2024-03-13T18:54:11.937Z,2.50
2024-03-13T18:56:38.378Z,2.50
2024-03-13T18:59:05.596Z,2.58
2024-03-13T19:01:33.572Z,2.65
2024-03-13T19:04:00.251Z,2.75
2024-03-13T19:06:26.908Z,2.33
2024-03-13T19:08:53.670Z,2.60
2024-03-13T19:11:20.203Z,3.00
2024-03-13T19:13:46.763Z,2.30
2024-03-13T19:16:13.216Z,2.15
2024-03-13T19:18:40.104Z,2.50
2024-03-13T19:21:06.764Z,2.45
2024-03-13T19:23:33.404Z,2.38
2024-03-13T19:26:02.133Z,2.42
2024-03-13T19:28:29.209Z,2.20
2024-03-13T19:30:56.859Z,2.40
2024-03-13T19:33:23.850Z,2.38
2024-03-13T19:35:50.785Z,2.38
2024-03-13T19:38:17.309Z,2.42
2024-03-13T19:40:44.707Z,2.50
2024-03-13T19:43:11.305Z,2.10
2024-03-13T19:45:37.841Z,2.03
2024-03-13T19:48:06.231Z,2.20
2024-03-13T19:50:33.303Z,1.98
2024-03-13T19:53:00.127Z,1.80
2024-03-13T19:55:26.625Z,2.13
2024-03-13T19:57:53.228Z,2.55
2024-03-13T20:00:20.910Z,2.30
2024-03-13T20:02:47.664Z,2.42
2024-03-13T20:05:14.977Z,2.33
2024-03-13T20:10:12.620Z,2.15
2024-03-13T20:12:40.697Z,1.90
2024-03-13T20:15:07.505Z,2.22
2024-03-13T20:17:34.394Z,2.10
2024-03-13T20:20:01.331Z,2.08
2024-03-13T20:22:27.794Z,2.10
2024-03-13T20:24:54.665Z,2.15
2024-03-13T20:27:23.261Z,2.20
2024-03-13T20:29:50.080Z,2.05
2024-03-13T20:32:16.659Z,2.30
2024-03-13T20:34:43.190Z,1.90
2024-03-13T20:37:11.476Z,2.13
2024-03-13T20:39:38.127Z,2.40
2024-03-13T20:42:04.747Z,1.98
2024-03-13T20:44:31.656Z,2.28
2024-03-13T20:46:58.179Z,1.90
2024-03-13T20:49:24.755Z,2.03
2024-03-13T20:51:51.314Z,2.20
2024-03-13T20:54:17.796Z,1.92
2024-03-13T20:56:44.596Z,1.90
2024-03-13T20:59:13.643Z,2.10
2024-03-13T21:01:40.245Z,1.95
2024-03-13T21:04:06.755Z,2.00
2024-03-13T21:06:33.365Z,1.83
2024-03-13T21:09:00.401Z,2.08
2024-03-13T21:11:27.812Z,1.90
2024-03-13T21:13:56.259Z,1.80
2024-03-13T21:16:23.209Z,1.80
2024-03-13T21:18:49.817Z,1.70
2024-03-13T21:21:22.371Z,1.80
2024-03-13T21:23:53.528Z,1.60
2024-03-13T21:26:20.262Z,1.90
2024-03-13T21:28:47.664Z,1.70
2024-03-13T21:31:14.498Z,1.75
2024-03-13T21:33:42.108Z,1.85
2024-03-13T21:36:08.745Z,1.60
2024-03-13T21:38:37.438Z,1.60
2024-03-13T21:41:08.962Z,1.50
2024-03-13T21:43:36.144Z,1.73
2024-03-13T21:46:03.036Z,1.70
2024-03-13T21:48:29.822Z,1.80
2024-03-13T21:50:56.527Z,1.60
2024-03-13T21:53:23.457Z,1.88
2024-03-13T21:55:50.577Z,1.70
2024-03-13T21:58:17.062Z,1.70
2024-03-13T22:00:44.868Z,2.00
2024-03-13T22:03:14.334Z,2.15
2024-03-13T22:05:43.694Z,1.80
2024-03-13T22:08:10.322Z,1.63
2024-03-13T22:10:39.930Z,2.00
2024-03-13T22:13:06.506Z,1.88
2024-03-13T22:15:33.048Z,1.77
2024-03-13T22:17:59.686Z,1.90
2024-03-13T22:20:26.280Z,2.25
2024-03-13T22:22:52.820Z,1.85
2024-03-13T22:25:20.149Z,1.90
2024-03-13T22:27:46.737Z,2.10
2024-03-13T22:30:13.430Z,1.80
2024-03-13T22:32:39.973Z,1.95
2024-03-13T22:35:09.902Z,1.98
2024-03-13T22:37:37.029Z,2.00
2024-03-13T22:40:07.924Z,1.92
2024-03-13T22:42:35.906Z,2.20
2024-03-13T22:45:02.849Z,2.15
2024-03-13T22:47:29.458Z,2.20
2024-03-13T22:49:55.930Z,2.00
2024-03-13T22:52:22.442Z,2.00
2024-03-13T22:54:49.897Z,1.90
2024-03-13T22:59:43.249Z,2.08
2024-03-13T23:02:09.727Z,2.28
2024-03-13T23:04:36.254Z,2.25
2024-03-13T23:07:04.771Z,2.10
2024-03-13T23:09:34.215Z,2.28
2024-03-13T23:12:00.801Z,2.03
2024-03-13T23:14:27.326Z,2.30
2024-03-13T23:16:53.856Z,2.30
2024-03-13T23:19:20.986Z,2.47
2024-03-13T23:21:48.893Z,2.47
2024-03-13T23:24:15.413Z,2.00
2024-03-13T23:26:41.870Z,1.95
2024-03-13T23:29:08.470Z,2.63
2024-03-13T23:31:35.073Z,2.10
2024-03-13T23:34:01.669Z,2.50
2024-03-13T23:36:28.394Z,2.20
2024-03-13T23:38:58.127Z,2.50
2024-03-13T23:41:26.018Z,2.15
2024-03-13T23:43:52.492Z,2.25
2024-03-13T23:46:18.969Z,2.17
2024-03-13T23:48:46.507Z,2.50
2024-03-13T23:51:15.834Z,2.20
2024-03-13T23:53:42.505Z,2.50
2024-03-13T23:56:11.152Z,2.72
2024-03-13T23:58:37.614Z,2.13
